Time;durP1;ratioP1;P1;durP2;ratioP2;P2;SDS_P1;SDS_P2;PMS_P1;PMS_P2;Temp;Humidity;BMP_temperature;BMP_pressure;BME280_temperature;BME280_humidity;BME280_pressure;Samples;Min_cycle;Max_cycle;Signal;HPM_P1;HPM_P2
2022/04/24 02:08:04;;;;;;;3.40;0.50;;;;;;;6.60;100.00;93312.19;5036461;28;20042;-93
2022/04/24 02:10:29;;;;;;;5.00;0.95;;;;;;;6.50;100.00;93317.44;5004329;28;20393;-94
2022/04/24 02:12:54;;;;;;;2.95;0.40;;;;;;;6.37;100.00;93303.16;5020986;28;20033;-94
2022/04/24 02:15:20;;;;;;;4.50;0.52;;;;;;;6.36;100.00;93305.00;5037233;28;20029;-92
2022/04/24 02:17:46;;;;;;;5.88;0.70;;;;;;;6.13;100.00;93302.97;5036969;28;20030;-92
2022/04/24 02:20:11;;;;;;;4.10;0.65;;;;;;;6.17;100.00;93309.22;5020878;28;20033;-92
2022/04/24 02:25:59;;;;;;;3.03;0.88;;;;;;;6.59;100.00;93321.00;5037761;28;20412;-92
2022/04/24 02:28:24;;;;;;;2.50;0.70;;;;;;;6.65;100.00;93317.34;5004503;28;20025;-92
2022/04/24 02:30:50;;;;;;;2.28;0.52;;;;;;;6.57;100.00;93312.69;5020122;28;20029;-94
2022/04/24 02:33:15;;;;;;;3.88;0.52;;;;;;;6.45;100.00;93320.03;5020504;28;20350;-92
2022/04/24 02:35:41;;;;;;;4.30;0.70;;;;;;;6.21;100.00;93310.25;5005757;28;20029;-92
2022/04/24 02:38:06;;;;;;;3.53;0.47;;;;;;;6.20;100.00;93300.91;5005711;28;20390;-93
2022/04/24 02:40:34;;;;;;;4.65;1.33;;;;;;;6.31;100.00;93309.44;5037086;28;20338;-91
2022/04/24 02:42:59;;;;;;;8.52;1.10;;;;;;;6.23;100.00;93289.94;5036555;28;20025;-93
2022/04/24 02:45:27;;;;;;;7.97;0.90;;;;;;;6.14;100.00;93278.53;5020214;28;20029;-93
2022/04/24 02:47:53;;;;;;;5.50;0.90;;;;;;;6.23;100.00;93267.31;5020345;28;20448;-92
2022/04/24 02:50:19;;;;;;;5.97;0.73;;;;;;;6.01;100.00;93259.84;5003929;28;20120;-93
2022/04/24 02:52:49;;;;;;;2.88;0.75;;;;;;;6.03;100.00;93263.00;5003812;28;20026;-93
2022/04/24 02:55:14;;;;;;;3.63;0.40;;;;;;;6.03;100.00;93257.00;5019434;28;20025;-92
2022/04/24 02:57:40;;;;;;;3.95;0.70;;;;;;;5.52;100.00;93259.44;5019941;28;20067;-91
2022/04/24 03:00:07;;;;;;;2.15;0.55;;;;;;;5.87;100.00;93251.81;5020114;28;20427;-92
2022/04/24 03:05:54;;;;;;;2.00;0.65;;;;;;;6.28;100.00;93237.13;5037244;28;20117;-91
2022/04/24 03:08:20;;;;;;;3.15;0.70;;;;;;;6.17;100.00;93236.38;5003610;28;20053;-92
2022/04/24 03:10:46;;;;;;;3.88;0.68;;;;;;;6.25;100.00;93254.03;5003575;28;20029;-93
2022/04/24 03:13:12;;;;;;;4.30;0.60;;;;;;;6.36;100.00;93271.19;5036201;28;20449;-92
2022/04/24 03:15:38;;;;;;;5.70;1.15;;;;;;;6.48;100.00;93283.09;5019956;28;20041;-92
2022/04/24 03:18:04;;;;;;;4.82;0.50;;;;;;;6.65;100.00;93287.94;5003311;28;20083;-93
2022/04/24 03:20:30;;;;;;;4.88;0.70;;;;;;;6.70;100.00;93306.16;5019807;28;20132;-91
2022/04/24 03:22:55;;;;;;;5.80;0.80;;;;;;;6.84;100.00;93297.75;5003346;28;20461;-93
2022/04/24 03:25:21;;;;;;;3.83;0.95;;;;;;;6.93;100.00;93286.47;5036236;28;20037;-91
2022/04/24 03:27:46;;;;;;;3.53;0.82;;;;;;;6.73;100.00;93287.38;5019788;28;20036;-93
2022/04/24 03:30:12;;;;;;;4.93;0.70;;;;;;;6.56;100.00;93286.97;5036282;28;20029;-91
2022/04/24 03:32:38;;;;;;;2.90;0.90;;;;;;;7.04;100.00;93273.41;5019817;28;20033;-93
2022/04/24 03:35:06;;;;;;;3.38;0.70;;;;;;;7.57;100.00;93270.09;5003275;28;20111;-92
2022/04/24 03:37:31;;;;;;;1.90;0.57;;;;;;;7.63;100.00;93268.22;5019820;28;20025;-94
2022/04/24 03:39:59;;;;;;;5.40;0.60;;;;;;;7.84;100.00;93257.59;5019737;28;20488;-93
2022/04/24 03:42:28;;;;;;;3.33;0.63;;;;;;;7.22;100.00;93264.13;5003889;28;20033;-93
2022/04/24 03:44:56;;;;;;;4.93;0.65;;;;;;;7.54;100.00;93280.28;5003930;28;20033;-93
2022/04/24 03:47:23;;;;;;;4.35;0.65;;;;;;;8.03;100.00;93268.09;5019505;28;20025;-93
2022/04/24 03:49:58;;;;;;;;;;;;;;;;;;;;;
2022/04/24 03:52:26;;;;;;;4.22;0.50;;;;;;;8.17;100.00;93268.19;5035888;28;20047;-93
2022/04/24 03:54:51;;;;;;;0.98;0.45;;;;;;;8.17;100.00;93263.75;5020056;28;20025;-92
2022/04/24 03:57:17;;;;;;;5.90;0.50;;;;;;;8.10;100.00;93276.34;5036171;28;20107;-93
2022/04/24 03:59:47;;;;;;;3.08;0.68;;;;;;;8.02;100.00;93269.16;5035970;28;20072;-93
2022/04/24 04:02:16;;;;;;;3.20;0.73;;;;;;;7.88;100.00;93274.22;5019718;28;20037;-93
2022/04/24 04:04:43;;;;;;;5.88;0.85;;;;;;;7.94;100.00;93280.97;5003336;28;20083;-93
2022/04/24 04:07:09;;;;;;;3.53;0.80;;;;;;;7.97;100.00;93272.59;5022496;28;20033;-93
2022/04/24 04:09:36;;;;;;;6.47;0.75;;;;;;;8.06;100.00;93263.09;5039635;28;20021;-93
2022/04/24 04:12:02;;;;;;;3.08;0.88;;;;;;;7.95;100.00;93268.69;5039377;28;20026;-93
2022/04/24 04:14:28;;;;;;;2.40;0.57;;;;;;;8.06;100.00;93264.91;5022579;28;20037;-93
2022/04/24 04:17:01;;;;;;;6.22;0.82;;;;;;;7.88;100.00;93264.59;5006553;28;20087;-92
2022/04/24 04:19:26;;;;;;;6.82;0.90;;;;;;;8.03;100.00;93245.41;5023832;28;20033;-93
2022/04/24 04:21:52;;;;;;;5.50;0.70;;;;;;;8.15;100.00;93254.66;5023204;28;20119;-93
2022/04/24 04:24:17;;;;;;;4.22;0.98;;;;;;;8.09;100.00;93255.78;5006418;28;20357;-92
2022/04/24 04:26:45;;;;;;;2.83;0.68;;;;;;;8.17;100.00;93255.94;5022756;28;20029;-92
2022/04/24 04:29:11;;;;;;;2.75;0.60;;;;;;;8.17;100.00;93257.75;5022841;28;20119;-93
2022/04/24 04:31:36;;;;;;;2.85;0.68;;;;;;;8.32;100.00;93257.59;5022483;28;20029;-93
2022/04/24 04:34:02;;;;;;;3.13;0.60;;;;;;;8.38;100.00;93255.66;5039177;28;20033;-92
2022/04/24 04:36:28;;;;;;;3.03;0.82;;;;;;;8.42;100.00;93251.47;5022449;28;20029;-93
2022/04/24 04:38:54;;;;;;;4.70;0.80;;;;;;;8.46;100.00;93256.88;5039164;28;20040;-93
2022/04/24 04:41:19;;;;;;;5.03;0.60;;;;;;;8.38;100.00;93263.50;5022399;28;20029;-93
2022/04/24 04:43:45;;;;;;;3.35;0.70;;;;;;;8.37;100.00;93253.34;5022331;28;20072;-92
2022/04/24 04:46:10;;;;;;;3.15;0.50;;;;;;;8.40;100.00;93256.19;5022256;28;20087;-93
2022/04/24 04:48:36;;;;;;;2.83;0.60;;;;;;;8.63;100.00;93249.38;5039395;28;20414;-93
2022/04/24 04:51:02;;;;;;;0.85;0.50;;;;;;;8.71;100.00;93252.41;5005892;28;20033;-93
2022/04/24 04:53:27;;;;;;;4.45;0.80;;;;;;;8.83;100.00;93260.59;5005850;28;20047;-93
2022/04/24 04:55:52;;;;;;;6.25;0.65;;;;;;;9.11;100.00;93273.78;5022258;28;20075;-93
2022/04/24 04:58:18;;;;;;;6.15;0.68;;;;;;;8.90;100.00;93268.09;5038263;28;20087;-93
2022/04/24 05:00:43;;;;;;;4.55;0.68;;;;;;;8.77;100.00;93277.41;5021981;28;20029;-93
2022/04/24 05:03:09;;;;;;;2.47;0.50;;;;;;;8.90;100.00;93274.09;5022054;28;20034;-93
2022/04/24 05:05:35;;;;;;;3.28;0.70;;;;;;;8.96;100.00;93272.16;5038524;28;20068;-92
2022/04/24 05:08:00;;;;;;;1.65;0.50;;;;;;;8.87;100.00;93272.03;5022043;28;20041;-93
2022/04/24 05:10:26;;;;;;;7.32;0.75;;;;;;;8.79;100.00;93266.66;5038325;28;20446;-93
2022/04/24 05:12:51;;;;;;;9.23;1.02;;;;;;;8.85;100.00;93278.63;5021726;28;20033;-93
2022/04/24 05:15:26;;;;;;;;;;;;;;;;;;;;;
2022/04/24 05:17:52;;;;;;;1.10;0.57;;;;;;;8.80;100.00;93274.22;5022418;28;20024;-93
2022/04/24 05:20:18;;;;;;;6.53;0.82;;;;;;;8.80;100.00;93269.00;5038082;28;20501;-94
2022/04/24 05:22:46;;;;;;;5.25;0.73;;;;;;;8.68;100.00;93277.28;5039073;28;20108;-93
2022/04/24 05:25:14;;;;;;;4.38;0.70;;;;;;;8.82;100.00;93266.88;5021852;28;20047;-93
2022/04/24 05:27:40;;;;;;;4.82;0.68;;;;;;;8.83;100.00;93259.84;5037877;28;20030;-94
2022/04/24 05:30:07;;;;;;;2.35;0.73;;;;;;;9.28;100.00;93264.66;5005223;28;20056;-92
2022/04/24 05:32:49;;;;;;;4.65;0.88;;;;;;;9.61;100.00;93267.25;5021315;28;20431;-93
2022/04/24 05:35:20;;;;;;;4.53;0.70;;;;;;;9.83;100.00;93269.25;5022235;28;20050;-92
2022/04/24 05:37:47;;;;;;;7.05;1.02;;;;;;;10.06;100.00;93255.50;5021839;28;20032;-94
2022/04/24 05:40:16;;;;;;;4.75;1.02;;;;;;;10.36;100.00;93255.97;5021276;28;20025;-94
2022/04/24 05:42:48;;;;;;;5.78;0.70;;;;;;;10.74;100.00;93253.09;5021697;28;20104;-93
2022/04/24 05:45:18;;;;;;;3.92;0.70;;;;;;;10.62;100.00;93255.47;5021991;28;20112;-91
2022/04/24 05:47:46;;;;;;;4.85;0.90;;;;;;;10.80;100.00;93251.94;5021347;28;20071;-91
2022/04/24 05:50:12;;;;;;;2.70;0.60;;;;;;;11.00;100.00;93269.06;5004860;28;20030;-92
2022/04/24 05:53:09;;;;;;;5.13;1.17;;;;;;;10.87;100.00;93267.25;5021161;28;20065;-92
2022/04/24 05:55:34;;;;;;;5.03;0.73;;;;;;;11.14;100.00;93276.09;5038673;28;20043;-91
2022/04/24 05:58:02;;;;;;;3.97;0.90;;;;;;;11.26;100.00;93270.31;5004469;28;20124;-91
2022/04/24 06:00:27;;;;;;;4.70;0.82;;;;;;;11.05;100.00;93273.41;5021065;28;20044;-91
2022/04/24 06:02:53;;;;;;;8.68;0.80;;;;;;;10.74;100.00;93274.06;5020782;28;20032;-91
2022/04/24 06:05:18;;;;;;;5.68;0.80;;;;;;;11.30;100.00;93271.25;5037184;28;20025;-93
2022/04/24 06:07:44;;;;;;;3.97;0.60;;;;;;;11.51;100.00;93268.94;5020967;28;20031;-92
2022/04/24 06:10:11;;;;;;;7.07;0.80;;;;;;;11.92;100.00;93275.03;5021105;28;20029;-93
2022/04/24 06:12:50;;;;;;;4.03;0.80;;;;;;;12.09;100.00;93271.72;5037002;28;20378;-92
2022/04/24 06:15:23;;;;;;;7.93;1.05;;;;;;;12.20;100.00;93269.59;5020760;28;20021;-92
2022/04/24 06:17:53;;;;;;;8.45;0.90;;;;;;;11.84;100.00;93283.63;5005035;28;20026;-91
2022/04/24 06:20:20;;;;;;;4.70;1.02;;;;;;;11.63;100.00;93272.84;5018018;28;20039;-90
2022/04/24 06:22:49;;;;;;;6.50;0.80;;;;;;;11.77;100.00;93285.91;5024126;28;20024;-89
2022/04/24 06:25:21;;;;;;;4.00;0.75;;;;;;;12.01;100.00;93290.81;5037043;28;20457;-91
2022/04/24 06:27:55;;;;;;;6.03;0.75;;;;;;;12.06;100.00;93276.81;5036874;28;20427;-91
2022/04/24 06:30:23;;;;;;;6.72;0.98;;;;;;;12.22;100.00;93283.19;5036189;28;20064;-90
2022/04/24 06:33:39;;;;;;;3.08;0.82;;;;;;;12.34;100.00;93284.44;5036722;28;20454;-91
2022/04/24 06:36:04;;;;;;;5.00;1.13;;;;;;;11.25;100.00;93293.13;5036849;28;20116;-91
2022/04/24 06:38:32;;;;;;;4.45;0.57;;;;;;;11.32;100.00;93285.63;5036827;28;20105;-90
2022/04/24 06:40:57;;;;;;;4.15;0.80;;;;;;;11.17;100.00;93283.38;5020314;28;20120;-91
2022/04/24 06:43:23;;;;;;;3.55;0.68;;;;;;;11.11;100.00;93280.09;5036553;28;20045;-91
2022/04/24 06:45:48;;;;;;;7.65;0.80;;;;;;;11.03;100.00;93294.66;5020148;28;20057;-90
2022/04/24 06:48:15;;;;;;;3.72;0.77;;;;;;;11.17;100.00;93278.88;5020149;28;20021;-90
2022/04/24 06:50:44;;;;;;;5.85;0.73;;;;;;;11.18;100.00;93277.81;5019923;28;20026;-90
2022/04/24 06:53:13;;;;;;;4.70;0.80;;;;;;;11.38;100.00;93294.16;5020277;28;20047;-91
2022/04/24 06:55:52;;;;;;;3.72;0.60;;;;;;;10.65;100.00;93286.31;5019899;28;20025;-89
2022/04/24 06:58:20;;;;;;;2.92;0.65;;;;;;;10.63;100.00;93291.06;5036433;28;20041;-90
2022/04/24 07:00:47;;;;;;;3.33;1.08;;;;;;;10.22;100.00;93296.00;5052295;28;20033;-88
2022/04/24 07:03:20;;;;;;;5.85;0.82;;;;;;;10.15;100.00;93291.16;5052371;28;20064;-89
2022/04/24 07:05:47;;;;;;;4.45;0.90;;;;;;;10.09;100.00;93289.69;5003980;28;20025;-89
2022/04/24 07:08:12;;;;;;;3.47;0.73;;;;;;;10.60;100.00;93289.81;5003688;28;20387;-89
2022/04/24 07:10:38;;;;;;;3.90;0.95;;;;;;;10.77;100.00;93289.22;5003931;28;20025;-88
2022/04/24 07:13:04;;;;;;;6.38;0.60;;;;;;;11.30;100.00;93287.00;5019712;28;20025;-90
2022/04/24 07:15:31;;;;;;;7.55;0.90;;;;;;;11.52;100.00;93295.94;5003606;28;20031;-89
2022/04/24 07:17:59;;;;;;;3.28;0.85;;;;;;;12.16;100.00;93297.53;5003488;28;20022;-91
2022/04/24 07:20:25;;;;;;;4.13;0.90;;;;;;;12.55;100.00;93295.97;5003345;28;20025;-91
2022/04/24 07:26:53;;;;;;;;;;;;;;;11.98;100.00;93304.53;5037300;28;20124;-89
2022/04/24 07:29:52;;;;;;;5.25;1.10;;;;;;;11.32;100.00;93305.81;5019585;28;19916;-89
2022/04/24 07:32:20;;;;;;;7.65;1.42;;;;;;;10.98;100.00;93296.63;5036251;28;20029;-89
2022/04/24 07:34:49;;;;;;;7.88;1.50;;;;;;;11.01;100.00;93298.66;5004151;28;20033;-90
2022/04/24 07:37:16;;;;;;;5.32;1.60;;;;;;;10.70;100.00;93296.69;5003182;28;20132;-90
2022/04/24 07:39:45;;;;;;;6.65;1.45;;;;;;;10.73;100.00;93314.44;5003514;28;20099;-89
2022/04/24 07:42:12;;;;;;;4.95;1.70;;;;;;;10.47;100.00;93317.53;5003025;28;20026;-89
2022/04/24 07:44:38;;;;;;;8.77;2.45;;;;;;;10.80;100.00;93314.03;4987999;28;20092;-91
2022/04/24 07:47:09;;;;;;;4.60;1.73;;;;;;;10.38;100.00;93324.53;5020262;28;20026;-89
2022/04/24 07:49:34;;;;;;;8.38;2.03;;;;;;;9.84;100.00;93323.13;4987958;28;20057;-90
2022/04/24 07:52:00;;;;;;;9.60;2.45;;;;;;;9.71;100.00;93334.31;4987642;28;20030;-91
2022/04/24 07:54:25;;;;;;;7.30;2.10;;;;;;;9.87;100.00;93347.91;5020241;28;20034;-90
2022/04/24 07:56:51;;;;;;;3.13;1.60;;;;;;;9.95;100.00;93364.78;4987259;28;20033;-89
2022/04/24 07:59:16;;;;;;;14.10;3.00;;;;;;;9.42;100.00;93375.28;5019925;28;20038;-89
2022/04/24 08:01:42;;;;;;;5.63;2.40;;;;;;;8.78;100.00;93404.31;4987402;28;20073;-90
2022/04/24 08:04:07;;;;;;;7.03;2.30;;;;;;;8.37;100.00;93394.28;4987228;28;20039;-89
2022/04/24 08:06:39;;;;;;;7.40;1.70;;;;;;;7.71;100.00;93402.44;5019974;28;20044;-89
2022/04/24 08:09:05;;;;;;;6.82;1.83;;;;;;;7.30;100.00;93416.50;4987514;28;20062;-90
2022/04/24 08:11:30;;;;;;;21.38;13.32;;;;;;;6.92;100.00;93438.56;5019615;28;20328;-90
2022/04/24 08:14:01;;;;;;;7.25;3.90;;;;;;;6.87;100.00;93441.16;5003103;28;20099;-91
2022/04/24 08:16:27;;;;;;;6.95;3.47;;;;;;;6.86;100.00;93449.25;5003184;28;20033;-88
2022/04/24 08:18:53;;;;;;;13.45;4.28;;;;;;;7.12;100.00;93462.97;5003672;28;20038;-89
2022/04/24 08:21:56;;;;;;;5.10;1.70;;;;;;;6.92;100.00;93456.00;4987194;28;20030;-89
2022/04/24 08:24:30;;;;;;;12.68;1.15;;;;;;;6.71;100.00;93455.28;5003336;28;20026;-91
2022/04/24 08:26:56;;;;;;;6.28;0.77;;;;;;;6.30;100.00;93453.56;4987494;28;20037;-89
2022/04/24 08:29:21;;;;;;;6.43;0.82;;;;;;;6.23;100.00;93451.22;5002855;28;20030;-89
2022/04/24 08:31:47;;;;;;;1.08;0.50;;;;;;;5.86;100.00;93455.63;5018783;28;20152;-89
2022/04/24 08:34:12;;;;;;;0.43;0.40;;;;;;;5.87;100.00;93456.41;5018506;28;20037;-87
2022/04/24 08:36:38;;;;;;;4.22;0.70;;;;;;;5.80;100.00;93446.25;5002201;28;20026;-87
2022/04/24 08:39:03;;;;;;;0.40;0.40;;;;;;;5.80;100.00;93454.06;5018517;28;20040;-87
2022/04/24 08:41:29;;;;;;;2.53;0.70;;;;;;;5.85;100.00;93458.47;5002126;28;20030;-87
2022/04/24 08:43:55;;;;;;;1.45;0.70;;;;;;;6.04;100.00;93469.19;4985885;28;20029;-86
2022/04/24 08:46:22;;;;;;;0.68;0.43;;;;;;;5.90;100.00;93479.28;5017885;28;20442;-86
2022/04/24 08:48:47;;;;;;;1.33;0.57;;;;;;;5.91;100.00;93478.25;5001695;28;20044;-85
2022/04/24 08:51:14;;;;;;;1.00;0.57;;;;;;;5.32;100.00;93475.81;4985552;28;20359;-86
2022/04/24 08:53:39;;;;;;;1.55;0.50;;;;;;;5.32;100.00;93494.00;4984274;28;20045;-85
2022/04/24 08:56:05;;;;;;;0.85;0.50;;;;;;;5.18;100.00;93493.69;5001609;28;20034;-85
2022/04/24 08:58:31;;;;;;;4.47;0.60;;;;;;;5.08;100.00;93504.03;5001457;28;20044;-84
2022/04/24 09:00:57;;;;;;;3.40;1.23;;;;;;;5.13;100.00;93508.47;4984980;28;20053;-86
2022/04/24 09:03:22;;;;;;;2.17;0.52;;;;;;;4.84;100.00;93486.28;4985281;28;20030;-86
2022/04/24 09:05:48;;;;;;;5.68;0.68;;;;;;;4.81;100.00;93489.38;4985058;28;20033;-86
2022/04/24 09:08:14;;;;;;;1.50;0.52;;;;;;;4.84;100.00;93483.69;4985103;28;20025;-86
2022/04/24 09:10:50;;;;;;;1.05;0.40;;;;;;;5.12;100.00;93481.72;5001529;28;20034;-86
2022/04/24 09:16:24;;;;;;;0.63;0.43;;;;;;;5.39;100.00;93483.38;5003946;28;20037;-87
2022/04/24 09:18:49;;;;;;;1.55;0.68;;;;;;;5.50;100.00;93481.56;5001461;28;20025;-87
2022/04/24 09:21:15;;;;;;;1.20;0.70;;;;;;;5.51;100.00;93485.72;5001594;28;20095;-87
2022/04/24 09:23:44;;;;;;;5.13;0.70;;;;;;;5.48;100.00;93481.03;5001128;28;20029;-87
2022/04/24 09:26:15;;;;;;;0.90;0.47;;;;;;;5.39;100.00;93480.75;5017397;28;20491;-87
2022/04/24 09:28:41;;;;;;;1.52;0.38;;;;;;;5.21;100.00;93475.00;5001473;28;20093;-87
2022/04/24 09:31:07;;;;;;;1.48;0.50;;;;;;;5.05;100.00;93487.16;5001181;28;20381;-88
2022/04/24 09:33:42;;;;;;;7.40;0.63;;;;;;;5.05;100.00;93491.56;4995865;28;20032;-88
2022/04/24 09:36:09;;;;;;;1.25;0.50;;;;;;;5.14;100.00;93486.66;5021011;28;20036;-87
2022/04/24 09:38:45;;;;;;;7.70;0.80;;;;;;;5.03;100.00;93522.19;5004761;28;20029;-87
2022/04/24 09:41:21;;;;;;;4.18;0.57;;;;;;;4.80;100.00;93527.50;5021475;28;20033;-87
2022/04/24 09:43:47;;;;;;;3.67;0.70;;;;;;;4.69;100.00;93531.09;5020927;28;20062;-86
2022/04/24 09:46:13;;;;;;;4.53;0.50;;;;;;;4.48;100.00;93537.97;5020413;28;20084;-86
2022/04/24 09:48:38;;;;;;;1.65;0.50;;;;;;;4.57;100.00;93538.28;5020808;28;20017;-85
2022/04/24 09:51:04;;;;;;;6.43;0.70;;;;;;;4.49;100.00;93522.16;5020366;28;20036;-85
2022/04/24 09:53:31;;;;;;;3.03;0.50;;;;;;;4.51;100.00;93495.97;5020115;28;20064;-86
2022/04/24 09:55:58;;;;;;;4.85;0.68;;;;;;;4.66;100.00;93474.50;5020006;28;20101;-87
2022/04/24 09:58:25;;;;;;;3.20;0.70;;;;;;;5.05;100.00;93461.19;5020252;28;20112;-87
2022/04/24 10:00:52;;;;;;;2.47;0.70;;;;;;;5.62;100.00;93448.31;5020258;28;20029;-86
2022/04/24 10:03:19;;;;;;;29.13;10.88;;;;;;;6.65;100.00;93447.50;5003633;28;20025;-86
2022/04/24 10:05:47;;;;;;;30.85;14.35;;;;;;;7.36;100.00;93467.56;5019807;28;20124;-87
2022/04/24 10:08:16;;;;;;;5.07;1.60;;;;;;;7.20;100.00;93465.03;5004138;28;20083;-87
2022/04/24 10:10:42;;;;;;;45.67;18.92;;;;;;;7.42;100.00;93450.81;5004343;28;20033;-88
2022/04/24 10:13:10;;;;;;;2.15;0.75;;;;;;;7.84;100.00;93429.69;5036554;28;20350;-87
2022/04/24 10:15:37;;;;;;;4.70;2.40;;;;;;;7.63;100.00;93424.66;5019918;28;20037;-87
2022/04/24 10:18:09;;;;;;;11.98;4.28;;;;;;;7.79;100.00;93425.31;5020117;28;20033;-86
2022/04/24 10:21:08;;;;;;;1.08;0.50;;;;;;;7.73;100.00;93413.38;5037385;28;20055;-88
2022/04/24 10:23:35;;;;;;;5.15;2.65;;;;;;;8.17;100.00;93417.69;5019833;28;20062;-88
2022/04/24 10:26:00;;;;;;;0.30;0.30;;;;;;;8.43;100.00;93417.47;5020423;28;20410;-87
2022/04/24 10:28:37;;;;;;;2.03;0.47;;;;;;;7.80;100.00;93413.81;5004349;28;20041;-88
2022/04/24 10:31:04;;;;;;;1.48;0.30;;;;;;;7.58;100.00;93407.22;5003606;28;20025;-87
2022/04/24 10:33:32;;;;;;;0.47;0.30;;;;;;;7.53;100.00;93411.69;5003043;28;20467;-88
2022/04/24 10:36:12;;;;;;;4.45;1.52;;;;;;;7.89;100.00;93409.59;5011696;28;20040;-87
2022/04/24 10:42:14;;;;;;;3.08;0.50;;;;;;;8.14;100.00;93412.25;5016979;28;20088;-87
2022/04/24 10:44:50;;;;;;;2.08;0.70;;;;;;;8.75;100.00;93410.09;5000580;28;20029;-87
2022/04/24 10:47:16;;;;;;;2.13;0.50;;;;;;;9.23;100.00;93409.25;5000183;28;20026;-88
2022/04/24 10:49:41;;;;;;;3.05;0.70;;;;;;;10.27;100.00;93407.72;5000506;28;20021;-87
2022/04/24 10:52:07;;;;;;;15.73;6.68;;;;;;;10.46;100.00;93405.81;5000081;28;20036;-87
2022/04/24 10:54:38;;;;;;;15.85;8.02;;;;;;;11.00;100.00;93400.09;4999628;28;20036;-87
2022/04/24 10:57:21;;;;;;;1.35;0.50;;;;;;;10.95;100.00;93391.56;4984368;28;20065;-88
2022/04/24 10:59:52;;;;;;;1.98;1.25;;;;;;;11.15;100.00;93393.75;4983885;28;20406;-87
2022/04/24 11:02:30;;;;;;;12.30;4.55;;;;;;;11.90;100.00;93405.00;5000282;28;20053;-89
2022/04/24 11:05:09;;;;;;;1.58;0.38;;;;;;;11.67;100.00;93407.59;4984064;28;20099;-86
2022/04/24 11:07:34;;;;;;;4.78;0.75;;;;;;;12.10;100.00;93401.13;5019505;28;20040;-87
2022/04/24 11:10:06;;;;;;;8.00;3.88;;;;;;;12.31;100.00;93398.78;5016546;28;20115;-86
2022/04/24 11:12:32;;;;;;;3.90;1.10;;;;;;;12.40;100.00;93389.06;5019219;28;20033;-87
2022/04/24 11:15:16;;;;;;;7.95;3.72;;;;;;;12.69;100.00;93385.16;5020350;28;20040;-86
2022/04/24 11:17:42;;;;;;;0.30;0.22;;;;;;;11.46;100.00;93376.59;5009330;28;20061;-88
2022/04/24 11:20:09;;;;;;;2.70;0.40;;;;;;;10.97;100.00;93379.69;5025485;28;20059;-86
2022/04/24 11:22:52;;;;;;;1.13;0.40;;;;;;;10.84;100.00;93367.41;5025763;28;20472;-87
2022/04/24 11:25:21;;;;;;;1.65;0.30;;;;;;;10.41;100.00;93371.88;5022717;28;20038;-87
2022/04/24 11:28:05;;;;;;;3.67;0.80;;;;;;;10.97;100.00;93381.56;5015664;28;20029;-88
2022/04/24 11:30:37;;;;;;;384.83;189.68;;;;;;;11.73;100.00;93374.94;5005284;28;20083;-88
2022/04/24 11:33:18;;;;;;;4.65;1.70;;;;;;;12.21;100.00;93362.28;5011971;28;20026;-86
2022/04/24 11:35:44;;;;;;;1.10;0.50;;;;;;;12.34;100.00;93361.41;5022598;28;20041;-88
2022/04/24 11:38:13;;;;;;;1.15;0.40;;;;;;;12.40;100.00;93364.69;5039009;28;20033;-89
2022/04/24 11:40:48;;;;;;;1.35;0.70;;;;;;;12.44;100.00;93366.41;5006923;28;20030;-89
2022/04/24 11:43:16;;;;;;;17.70;13.75;;;;;;;13.78;100.00;93360.28;5006778;28;20036;-89
2022/04/24 11:51:18;;;;;;;2.90;0.77;;;;;;;14.78;100.00;93373.34;5036348;28;20091;-90
2022/04/24 11:53:47;;;;;;;1.05;0.60;;;;;;;14.62;100.00;93365.16;5006010;28;20387;-91
2022/04/24 11:56:13;;;;;;;0.13;0.10;;;;;;;13.73;100.00;93371.75;5006704;28;20065;-89
2022/04/24 11:58:43;;;;;;;1.55;1.40;;;;;;;13.57;100.00;93371.44;5006080;28;20501;-89
2022/04/24 12:01:12;;;;;;;1.98;1.10;;;;;;;13.76;100.00;93365.84;5038410;28;20033;-89
2022/04/24 12:03:38;;;;;;;4.32;0.40;;;;;;;13.53;100.00;93363.38;5006585;28;20037;-90
2022/04/24 12:06:15;;;;;;;0.75;0.50;;;;;;;13.28;100.00;93365.69;5022065;28;20034;-89
2022/04/24 12:08:44;;;;;;;0.90;0.30;;;;;;;13.59;100.00;93363.22;5011100;28;20053;-91
2022/04/24 12:11:30;;;;;;;0.40;0.30;;;;;;;13.01;100.00;93353.56;5026061;28;20032;-90
2022/04/24 12:14:10;;;;;;;2.25;0.60;;;;;;;13.66;100.00;93358.25;5041333;28;20135;-91
2022/04/24 12:16:46;;;;;;;2.38;1.48;;;;;;;13.45;100.00;93353.63;5009783;28;20029;-90
2022/04/24 12:19:17;;;;;;;0.55;0.22;;;;;;;12.57;100.00;93356.84;5026097;28;20041;-90
2022/04/24 12:21:53;;;;;;;10.75;5.75;;;;;;;12.71;100.00;93358.59;5009393;28;20059;-90
2022/04/24 12:24:18;;;;;;;1.15;0.45;;;;;;;12.68;100.00;93357.34;5009931;28;20033;-89
2022/04/24 12:26:48;;;;;;;3.35;0.45;;;;;;;11.88;100.00;93353.59;5009106;28;20037;-91
2022/04/24 12:29:15;;;;;;;1.52;0.40;;;;;;;11.31;100.00;93361.97;5022656;28;20033;-91
2022/04/24 12:31:41;;;;;;;1.95;0.60;;;;;;;11.31;100.00;93361.97;5006574;28;20029;-91
2022/04/24 12:34:07;;;;;;;9.60;5.70;;;;;;;11.56;100.00;93358.00;5022408;28;20040;-91
2022/04/24 12:36:35;;;;;;;1.38;0.93;;;;;;;11.36;100.00;93367.13;5022346;28;20033;-89
2022/04/24 12:39:10;;;;;;;14.52;8.07;;;;;;;11.46;100.00;93363.47;5022488;28;20408;-91
2022/04/24 12:41:39;;;;;;;2.00;0.32;;;;;;;11.12;100.00;93372.63;5006949;28;20084;-89
2022/04/24 12:44:07;;;;;;;1.13;0.32;;;;;;;11.03;100.00;93369.88;5006422;28;20025;-89
2022/04/24 12:46:34;;;;;;;3.75;0.40;;;;;;;11.51;100.00;93375.72;5022077;28;20052;-90
2022/04/24 12:49:07;;;;;;;2.47;0.50;;;;;;;11.45;100.00;93375.03;5021932;28;20032;-91
2022/04/24 12:51:33;;;;;;;1.48;0.70;;;;;;;11.53;100.00;93378.81;5006607;28;20355;-89
2022/04/24 12:54:03;;;;;;;2.53;1.20;;;;;;;11.34;100.00;93386.81;5006456;28;20041;-89
2022/04/24 12:56:29;;;;;;;2.70;0.43;;;;;;;11.07;100.00;93381.34;5006055;28;20435;-90
2022/04/24 12:58:55;;;;;;;3.10;0.57;;;;;;;10.64;100.00;93371.22;5021944;28;20029;-91
2022/04/24 13:01:23;;;;;;;6.85;0.70;;;;;;;10.82;100.00;93372.16;5021832;28;20025;-88
2022/04/24 13:03:49;;;;;;;2.92;0.50;;;;;;;11.16;100.00;93374.34;5005920;28;20115;-89
2022/04/24 13:06:15;;;;;;;1.90;0.75;;;;;;;11.28;100.00;93373.84;5005249;28;20057;-89
2022/04/24 13:08:41;;;;;;;2.83;0.68;;;;;;;10.46;100.00;93371.78;5021794;28;20026;-89
2022/04/24 13:11:07;;;;;;;1.60;0.63;;;;;;;10.37;100.00;93370.88;5005182;28;20149;-87
2022/04/24 13:13:35;;;;;;;1.42;0.60;;;;;;;10.18;100.00;93371.72;5002243;28;20120;-89
2022/04/24 13:18:45;;;;;;;3.50;0.73;;;;;;;10.46;100.00;93377.00;5032302;28;20041;-88
2022/04/24 13:21:12;;;;;;;0.73;0.43;;;;;;;10.86;100.00;93376.50;5021786;28;20033;-90
2022/04/24 13:23:38;;;;;;;2.28;0.30;;;;;;;11.23;100.00;93370.53;5003866;28;20310;-88
2022/04/24 13:26:03;;;;;;;0.73;0.30;;;;;;;11.59;100.00;93378.41;5021379;28;20060;-88
2022/04/24 13:28:32;;;;;;;0.68;0.30;;;;;;;12.28;100.00;93373.88;5021604;28;20073;-90
2022/04/24 13:30:58;;;;;;;0.85;0.30;;;;;;;12.21;100.00;93368.31;5036597;28;20037;-91
2022/04/24 13:33:24;;;;;;;0.82;0.43;;;;;;;12.43;100.00;93370.09;5037723;28;20033;-89
2022/04/24 13:35:54;;;;;;;0.45;0.20;;;;;;;12.53;100.00;93368.28;5037920;28;20060;-90
2022/04/24 13:38:20;;;;;;;0.60;0.30;;;;;;;12.34;100.00;93369.28;5020991;28;20124;-89
2022/04/24 13:40:59;;;;;;;1.23;0.30;;;;;;;12.08;100.00;93369.94;5021466;28;20060;-90
2022/04/24 13:43:26;;;;;;;0.55;0.20;;;;;;;10.90;100.00;93350.50;5025692;28;20033;-89
2022/04/24 13:45:54;;;;;;;0.28;0.10;;;;;;;11.51;100.00;93365.97;5021471;28;20056;-89
2022/04/24 13:48:26;;;;;;;0.30;0.25;;;;;;;11.16;100.00;93360.47;5037614;28;20051;-90
2022/04/24 13:50:54;;;;;;;0.75;0.52;;;;;;;11.62;100.00;93363.13;5005307;28;20025;-90
2022/04/24 13:53:20;;;;;;;0.93;0.50;;;;;;;11.88;100.00;93361.47;5020882;28;20057;-90
2022/04/24 13:55:46;;;;;;;0.90;0.40;;;;;;;11.86;100.00;93370.69;5004485;28;20029;-90
2022/04/24 13:58:12;;;;;;;1.17;0.20;;;;;;;12.08;100.00;93361.28;5004262;28;20493;-90
2022/04/24 14:00:44;;;;;;;0.20;0.20;;;;;;;11.70;100.00;93360.56;5004361;28;20060;-89
2022/04/24 14:03:12;;;;;;;0.70;0.40;;;;;;;11.61;100.00;93354.47;5022043;28;20346;-89
2022/04/24 14:05:49;;;;;;;0.35;0.20;;;;;;;11.95;100.00;93360.25;5020956;28;20041;-90
2022/04/24 14:08:16;;;;;;;0.93;0.30;;;;;;;11.96;100.00;93354.72;5020844;28;20083;-89
2022/04/24 14:10:43;;;;;;;0.43;0.30;;;;;;;12.19;100.00;93352.06;5004860;28;20025;-90